Time;durP1;ratioP1;P1;durP2;ratioP2;P2;SDS_P1;SDS_P2;PMS_P1;PMS_P2;Temp;Humidity;BMP_temperature;BMP_pressure;BME280_temperature;BME280_humidity;BME280_pressure;Samples;Min_cycle;Max_cycle;Signal;HPM_P1;HPM_P2
2023/06/27 00:00:42;;;;;;;;;;;;;;;;;;4897933;29;19907;-71
2023/06/27 00:03:08;;;;;;;;;;;;;;;;;;4897821;29;19918;-71
2023/06/27 00:05:35;;;;;;;;;;;;;;;;;;4897558;29;19911;-71
2023/06/27 00:08:01;;;;;;;;;;;;;;;;;;4897952;29;19922;-71
2023/06/27 00:10:27;;;;;;;;;;;;;;;;;;4881342;29;19979;-71
2023/06/27 00:12:53;;;;;;;;;;;;;;;;;;4898053;29;19918;-71
2023/06/27 00:15:19;;;;;;;;;;;;;;;;;;4897944;29;19915;-71
2023/06/27 00:17:46;;;;;;;;;;;;;;;;;;4897618;29;19912;-71
2023/06/27 00:20:12;;;;;;;;;;;;;;;;;;4897491;29;19907;-71
2023/06/27 00:22:39;;;;;;;;;;;;;;;;;;4897151;29;19922;-71
2023/06/27 00:25:05;;;;;;;;;;;;;;;;;;4898011;29;19911;-71
2023/06/27 00:27:32;;;;;;;;;;;;;;;;;;4897578;29;19923;-71
2023/06/27 00:29:58;;;;;;;;;;;;;;;;;;4897519;29;19916;-71
2023/06/27 00:32:24;;;;;;;;;;;;;;;;;;4897593;29;19917;-71
2023/06/27 00:34:50;;;;;;;;;;;;;;;;;;4897209;29;19963;-71
2023/06/27 00:37:16;;;;;;;;;;;;;;;;;;4897478;29;19907;-70
2023/06/27 00:39:43;;;;;;;;;;;;;;;;;;4880688;29;20361;-71
2023/06/27 00:42:09;;;;;;;;;;;;;;;;;;4898094;29;19908;-71
2023/06/27 00:44:35;;;;;;;;;;;;;;;;;;4897625;29;19914;-71
2023/06/27 00:47:01;;;;;;;;;;;;;;;;;;4897523;29;20308;-71
2023/06/27 00:49:27;;;;;;;;;;;;;;;;;;4896921;29;19919;-71
2023/06/27 00:51:53;;;;;;;;;;;;;;;;;;4897642;29;19915;-71
2023/06/27 00:54:20;;;;;;;;;;;;;;;;;;4897657;29;19933;-71
2023/06/27 00:56:46;;;;;;;;;;;;;;;;;;4880977;29;19918;-71
2023/06/27 00:59:12;;;;;;;;;;;;;;;;;;4897249;29;19914;-71
2023/06/27 01:01:38;;;;;;;;;;;;;;;;;;4897329;29;19911;-71
2023/06/27 01:04:04;;;;;;;;;;;;;;;;;;4896788;29;20451;-71
2023/06/27 01:06:31;;;;;;;;;;;;;;;;;;4880500;29;19919;-71
2023/06/27 01:08:57;;;;;;;;;;;;;;;;;;4897548;29;19908;-71
2023/06/27 01:11:23;;;;;;;;;;;;;;;;;;4897241;29;19912;-71
2023/06/27 01:13:49;;;;;;;;;;;;;;;;;;4897068;29;20387;-71
2023/06/27 01:16:15;;;;;;;;;;;;;;;;;;4897092;29;19914;-71
2023/06/27 01:18:42;;;;;;;;;;;;;;;;;;4896656;29;19907;-71
2023/06/27 01:21:08;;;;;;;;;;;;;;;;;;4897397;29;19914;-71
2023/06/27 01:23:34;;;;;;;;;;;;;;;;;;4897049;29;19923;-71
2023/06/27 01:26:01;;;;;;;;;;;;;;;;;;4896736;29;19907;-71
2023/06/27 01:28:27;;;;;;;;;;;;;;;;;;4880205;29;19921;-71
2023/06/27 01:30:54;;;;;;;;;;;;;;;;;;4896919;29;19914;-71
2023/06/27 01:33:20;;;;;;;;;;;;;;;;;;4899313;29;19911;-71
2023/06/27 01:35:46;;;;;;;;;;;;;;;;;;4900411;29;19913;-71
2023/06/27 01:38:12;;;;;;;;;;;;;;;;;;4900379;29;20376;-71
2023/06/27 01:40:38;;;;;;;;;;;;;;;;;;4900231;29;19915;-71
2023/06/27 01:43:06;;;;;;;;;;;;;;;;;;4900350;29;19984;-71
2023/06/27 01:45:33;;;;;;;;;;;;;;;;;;4900266;29;19911;-71
2023/06/27 01:47:59;;;;;;;;;;;;;;;;;;4899889;29;19920;-71
2023/06/27 01:50:26;;;;;;;;;;;;;;;;;;4900437;29;19907;-71
2023/06/27 01:52:52;;;;;;;;;;;;;;;;;;4900023;29;20288;-71
2023/06/27 01:55:18;;;;;;;;;;;;;;;;;;4900387;29;19938;-71
2023/06/27 01:57:44;;;;;;;;;;;;;;;;;;4900355;29;19915;-71
2023/06/27 02:00:10;;;;;;;;;;;;;;;;;;4899974;29;20357;-71
2023/06/27 02:02:37;;;;;;;;;;;;;;;;;;4900022;29;19914;-71
2023/06/27 02:05:03;;;;;;;;;;;;;;;;;;4899994;29;19907;-71
2023/06/27 02:07:29;;;;;;;;;;;;;;;;;;4899792;29;19978;-71
2023/06/27 02:09:55;;;;;;;;;;;;;;;;;;4899707;29;19994;-71
2023/06/27 02:12:21;;;;;;;;;;;;;;;;;;4900269;29;19971;-71
2023/06/27 02:14:47;;;;;;;;;;;;;;;;;;4899710;29;19918;-71
2023/06/27 02:17:14;;;;;;;;;;;;;;;;;;4899443;29;19907;-71
2023/06/27 02:19:40;;;;;;;;;;;;;;;;;;4899988;29;19907;-71
2023/06/27 02:22:06;;;;;;;;;;;;;;;;;;4899508;29;19914;-71
2023/06/27 02:24:32;;;;;;;;;;;;;;;;;;4899534;29;20350;-71
2023/06/27 02:26:58;;;;;;;;;;;;;;;;;;4899716;29;19922;-71
2023/06/27 02:29:24;;;;;;;;;;;;;;;;;;4899396;29;19966;-71
2023/06/27 02:31:51;;;;;;;;;;;;;;;;;;4898956;29;19918;-71
2023/06/27 02:34:17;;;;;;;;;;;;;;;;;;4899783;29;19914;-71
2023/06/27 02:36:43;;;;;;;;;;;;;;;;;;4882710;29;19908;-71
2023/06/27 02:39:09;;;;;;;;;;;;;;;;;;4899812;29;19946;-71
2023/06/27 02:41:35;;;;;;;;;;;;;;;;;;4899370;29;19907;-71
2023/06/27 02:44:02;;;;;;;;;;;;;;;;;;4898431;29;19970;-71
2023/06/27 02:46:28;;;;;;;;;;;;;;;;;;4898794;29;19907;-71
2023/06/27 02:48:54;;;;;;;;;;;;;;;;;;4899263;29;19911;-71
2023/06/27 02:51:21;;;;;;;;;;;;;;;;;;4882162;29;19908;-71
2023/06/27 02:53:47;;;;;;;;;;;;;;;;;;4899063;29;20407;-71
2023/06/27 02:56:13;;;;;;;;;;;;;;;;;;4899388;29;19911;-71
2023/06/27 02:58:39;;;;;;;;;;;;;;;;;;4898926;29;19913;-71
2023/06/27 03:01:06;;;;;;;;;;;;;;;;;;4898914;29;19907;-71
2023/06/27 03:03:32;;;;;;;;;;;;;;;;;;4898955;29;19907;-71
2023/06/27 03:06:02;;;;;;;;;;;;;;;;;;4898725;29;19915;-71
2023/06/27 03:08:28;;;;;;;;;;;;;;;;;;4898754;29;20340;-71
2023/06/27 03:10:56;;;;;;;;;;;;;;;;;;4899129;29;19907;-71
2023/06/27 03:13:22;;;;;;;;;;;;;;;;;;4898674;29;19915;-71
2023/06/27 03:15:48;;;;;;;;;;;;;;;;;;4898458;29;19911;-71
2023/06/27 03:18:14;;;;;;;;;;;;;;;;;;4898719;29;20337;-71
2023/06/27 03:20:40;;;;;;;;;;;;;;;;;;4898463;29;19913;-71
2023/06/27 03:23:07;;;;;;;;;;;;;;;;;;4898667;29;19920;-71
2023/06/27 03:25:33;;;;;;;;;;;;;;;;;;4881930;29;19907;-71
2023/06/27 03:27:59;;;;;;;;;;;;;;;;;;4898213;29;19988;-71
2023/06/27 03:30:25;;;;;;;;;;;;;;;;;;4898227;29;19907;-71
2023/06/27 03:32:51;;;;;;;;;;;;;;;;;;4898100;29;19970;-71
2023/06/27 03:35:18;;;;;;;;;;;;;;;;;;4898289;29;19913;-71
2023/06/27 03:37:44;;;;;;;;;;;;;;;;;;4898207;29;19914;-71
2023/06/27 03:40:11;;;;;;;;;;;;;;;;;;4881498;29;19981;-71
2023/06/27 03:42:37;;;;;;;;;;;;;;;;;;4898498;29;19929;-71
2023/06/27 03:45:03;;;;;;;;;;;;;;;;;;4897932;29;19907;-71
2023/06/27 03:47:30;;;;;;;;;;;;;;;;;;4898025;29;20353;-71
2023/06/27 03:49:56;;;;;;;;;;;;;;;;;;4897887;29;20291;-71
2023/06/27 03:52:22;;;;;;;;;;;;;;;;;;4898512;29;19908;-71
2023/06/27 03:54:48;;;;;;;;;;;;;;;;;;4898135;29;19913;-71
2023/06/27 03:57:15;;;;;;;;;;;;;;;;;;4897747;29;20373;-71
2023/06/27 03:59:42;;;;;;;;;;;;;;;;;;4898163;29;20317;-71
2023/06/27 04:02:08;;;;;;;;;;;;;;;;;;4881165;29;19908;-71
2023/06/27 04:04:34;;;;;;;;;;;;;;;;;;4898088;29;19908;-71
2023/06/27 04:07:00;;;;;;;;;;;;;;;;;;4897927;29;19979;-71
2023/06/27 04:09:26;;;;;;;;;;;;;;;;;;4897848;29;20349;-71
2023/06/27 04:11:53;;;;;;;;;;;;;;;;;;4897735;29;19907;-71
2023/06/27 04:14:19;;;;;;;;;;;;;;;;;;4898383;29;19915;-71
2023/06/27 04:16:45;;;;;;;;;;;;;;;;;;4881002;29;19911;-71
2023/06/27 04:19:12;;;;;;;;;;;;;;;;;;4897742;29;19908;-71
2023/06/27 04:21:38;;;;;;;;;;;;;;;;;;4897958;29;19915;-71
2023/06/27 04:24:04;;;;;;;;;;;;;;;;;;4897594;29;20345;-71
2023/06/27 04:26:30;;;;;;;;;;;;;;;;;;4880313;29;19913;-71
2023/06/27 04:28:57;;;;;;;;;;;;;;;;;;4897716;29;20372;-71
2023/06/27 04:31:25;;;;;;;;;;;;;;;;;;4897333;29;19911;-71
2023/06/27 04:33:55;;;;;;;;;;;;;;;;;;4897451;29;19912;-71
2023/06/27 04:36:25;;;;;;;;;;;;;;;;;;4897514;29;20415;-71
2023/06/27 04:38:51;;;;;;;;;;;;;;;;;;4897866;29;20349;-71
2023/06/27 04:41:17;;;;;;;;;;;;;;;;;;4897461;29;19914;-71
2023/06/27 04:43:44;;;;;;;;;;;;;;;;;;4897601;29;19908;-71
2023/06/27 04:46:10;;;;;;;;;;;;;;;;;;4897853;29;19914;-71
2023/06/27 04:48:36;;;;;;;;;;;;;;;;;;4897514;29;19919;-71
2023/06/27 04:51:03;;;;;;;;;;;;;;;;;;4897596;29;19913;-71
2023/06/27 04:53:30;;;;;;;;;;;;;;;;;;4897552;29;19911;-71
2023/06/27 04:55:56;;;;;;;;;;;;;;;;;;4897128;29;19907;-71
2023/06/27 04:58:22;;;;;;;;;;;;;;;;;;4897355;29;20387;-71
2023/06/27 05:00:48;;;;;;;;;;;;;;;;;;4897653;29;20288;-71
2023/06/27 05:03:14;;;;;;;;;;;;;;;;;;4897222;29;20365;-71
2023/06/27 05:05:41;;;;;;;;;;;;;;;;;;4897212;29;19918;-71
2023/06/27 05:08:07;;;;;;;;;;;;;;;;;;4898878;29;19920;-71
2023/06/27 05:10:33;;;;;;;;;;;;;;;;;;4901033;29;19908;-70
2023/06/27 05:12:59;;;;;;;;;;;;;;;;;;4901060;29;19907;-70
2023/06/27 05:15:25;;;;;;;;;;;;;;;;;;4900774;29;20300;-71
2023/06/27 05:17:52;;;;;;;;;;;;;;;;;;4884414;29;19908;-70
2023/06/27 05:20:18;;;;;;;;;;;;;;;;;;4900875;29;19908;-71
2023/06/27 05:22:44;;;;;;;;;;;;;;;;;;4883800;29;19924;-71
2023/06/27 05:25:10;;;;;;;;;;;;;;;;;;4900747;29;19914;-71
2023/06/27 05:27:37;;;;;;;;;;;;;;;;;;4900834;29;19915;-71
2023/06/27 05:30:03;;;;;;;;;;;;;;;;;;4900648;29;20360;-71
2023/06/27 05:32:29;;;;;;;;;;;;;;;;;;4900528;29;19915;-71
2023/06/27 05:34:55;;;;;;;;;;;;;;;;;;4900566;29;20296;-71
2023/06/27 05:37:21;;;;;;;;;;;;;;;;;;4883749;29;19914;-70
2023/06/27 05:39:48;;;;;;;;;;;;;;;;;;4900173;29;19911;-70
2023/06/27 05:42:14;;;;;;;;;;;;;;;;;;4900363;29;19908;-70
2023/06/27 05:44:40;;;;;;;;;;;;;;;;;;4900511;29;19914;-70
2023/06/27 05:47:06;;;;;;;;;;;;;;;;;;4900386;29;19919;-70
2023/06/27 05:49:32;;;;;;;;;;;;;;;;;;4900915;29;19907;-70
2023/06/27 05:51:58;;;;;;;;;;;;;;;;;;4900183;29;20518;-70
2023/06/27 05:54:25;;;;;;;;;;;;;;;;;;4900038;29;20300;-70
2023/06/27 05:56:51;;;;;;;;;;;;;;;;;;4900067;29;19987;-70
2023/06/27 05:59:17;;;;;;;;;;;;;;;;;;4883598;29;19914;-70
2023/06/27 06:01:43;;;;;;;;;;;;;;;;;;4896163;29;19908;-73
2023/06/27 06:04:09;;;;;;;;;;;;;;;;;;4900134;29;19912;-72
2023/06/27 06:06:37;;;;;;;;;;;;;;;;;;4899737;29;19914;-72
2023/06/27 06:09:04;;;;;;;;;;;;;;;;;;4899269;29;19908;-71
2023/06/27 06:11:30;;;;;;;;;;;;;;;;;;4899649;29;19912;-71
2023/06/27 06:13:56;;;;;;;;;;;;;;;;;;4882985;29;19918;-71
2023/06/27 06:16:22;;;;;;;;;;;;;;;;;;4899906;29;19907;-71
2023/06/27 06:18:49;;;;;;;;;;;;;;;;;;4881553;29;19915;-72
2023/06/27 06:21:15;;;;;;;;;;;;;;;;;;4892212;29;20288;-72
2023/06/27 06:23:41;;;;;;;;;;;;;;;;;;4899095;29;20307;-72
2023/06/27 06:26:07;;;;;;;;;;;;;;;;;;4899556;29;19911;-72
2023/06/27 06:28:33;;;;;;;;;;;;;;;;;;4876091;29;19919;-71
2023/06/27 06:31:00;;;;;;;;;;;;;;;;;;4879537;29;19923;-71
2023/06/27 06:33:27;;;;;;;;;;;;;;;;;;4883787;29;19978;-71
2023/06/27 06:35:54;;;;;;;;;;;;;;;;;;4883868;29;19911;-70
2023/06/27 06:38:20;;;;;;;;;;;;;;;;;;4884111;29;19938;-70
2023/06/27 06:40:46;;;;;;;;;;;;;;;;;;4868381;29;19926;-70
2023/06/27 06:43:12;;;;;;;;;;;;;;;;;;4889188;29;19919;-67
2023/06/27 06:45:38;;;;;;;;;;;;;;;;;;4884940;29;19925;-71
2023/06/27 06:48:05;;;;;;;;;;;;;;;;;;4884379;29;19924;-71
2023/06/27 06:50:32;;;;;;;;;;;;;;;;;;4887822;29;19911;-73
2023/06/27 06:52:58;;;;;;;;;;;;;;;;;;4884259;29;19908;-73
2023/06/27 06:55:24;;;;;;;;;;;;;;;;;;4896307;29;19930;-73
2023/06/27 06:57:50;;;;;;;;;;;;;;;;;;4892945;29;19912;-73
2023/06/27 07:00:16;;;;;;;;;;;;;;;;;;4883120;29;20286;-73
2023/06/27 07:02:42;;;;;;;;;;;;;;;;;;4884743;29;19919;-73
2023/06/27 07:05:09;;;;;;;;;;;;;;;;;;4884641;29;19919;-73
2023/06/27 07:07:35;;;;;;;;;;;;;;;;;;4883271;29;19926;-72
2023/06/27 07:10:01;;;;;;;;;;;;;;;;;;4867527;29;19967;-72
2023/06/27 07:12:27;;;;;;;;;;;;;;;;;;4884042;29;19915;-73
2023/06/27 07:14:53;;;;;;;;;;;;;;;;;;4884261;29;19919;-73
2023/06/27 07:17:20;;;;;;;;;;;;;;;;;;4884202;29;19919;-73
2023/06/27 07:19:46;;;;;;;;;;;;;;;;;;4883878;29;19923;-73
2023/06/27 07:22:12;;;;;;;;;;;;;;;;;;4883727;29;20380;-72
2023/06/27 07:24:38;;;;;;;;;;;;;;;;;;4883907;29;19924;-74
2023/06/27 07:27:05;;;;;;;;;;;;;;;;;;4884119;29;19930;-73
2023/06/27 07:29:31;;;;;;;;;;;;;;;;;;4882782;29;20269;-72
2023/06/27 07:31:58;;;;;;;;;;;;;;;;;;4883299;29;19915;-73
2023/06/27 07:34:24;;;;;;;;;;;;;;;;;;4873227;29;20369;-74
2023/06/27 07:36:50;;;;;;;;;;;;;;;;;;4878774;29;19908;-76
2023/06/27 07:39:16;;;;;;;;;;;;;;;;;;4895427;29;19911;-75
2023/06/27 07:41:43;;;;;;;;;;;;;;;;;;4907747;29;19904;-75
2023/06/27 07:44:09;;;;;;;;;;;;;;;;;;4897873;29;19908;-65
2023/06/27 07:46:35;;;;;;;;;;;;;;;;;;4897529;29;20462;-65
2023/06/27 07:49:02;;;;;;;;;;;;;;;;;;4897331;29;19912;-65
2023/06/27 07:51:28;;;;;;;;;;;;;;;;;;4896394;29;19917;-66
2023/06/27 07:53:56;;;;;;;;;;;;;;;;;;4897355;29;20271;-66
2023/06/27 07:56:22;;;;;;;;;;;;;;;;;;4901003;29;19914;-66
2023/06/27 07:58:48;;;;;;;;;;;;;;;;;;4905620;29;19958;-66
2023/06/27 08:01:15;;;;;;;;;;;;;;;;;;4900328;29;20373;-66
2023/06/27 08:03:41;;;;;;;;;;;;;;;;;;4885305;29;19911;-66
2023/06/27 08:06:07;;;;;;;;;;;;;;;;;;4884396;29;19918;-66
2023/06/27 08:08:36;;;;;;;;;;;;;;;;;;4878329;29;20373;-66
2023/06/27 08:11:02;;;;;;;;;;;;;;;;;;4892336;29;19911;-67
2023/06/27 08:13:28;;;;;;;;;;;;;;;;;;4897182;29;19914;-66
2023/06/27 08:15:54;;;;;;;;;;;;;;;;;;4890603;29;20300;-66
2023/06/27 08:18:21;;;;;;;;;;;;;;;;;;4904000;29;19911;-66
2023/06/27 08:20:47;;;;;;;;;;;;;;;;;;4903496;29;20357;-65
2023/06/27 08:23:13;;;;;;;;;;;;;;;;;;4893386;29;19958;-63
2023/06/27 08:25:39;;;;;;;;;;;;;;;;;;4884734;29;19924;-66
2023/06/27 08:28:05;;;;;;;;;;;;;;;;;;4895143;29;19923;-66
2023/06/27 08:30:31;;;;;;;;;;;;;;;;;;4879799;29;19907;-65
2023/06/27 08:32:58;;;;;;;;;;;;;;;;;;4896786;29;19914;-66
2023/06/27 08:35:24;;;;;;;;;;;;;;;;;;4896995;29;19911;-66
2023/06/27 08:37:50;;;;;;;;;;;;;;;;;;4896589;29;19959;-66
2023/06/27 08:40:16;;;;;;;;;;;;;;;;;;4896929;29;19914;-66
2023/06/27 08:42:42;;;;;;;;;;;;;;;;;;4898131;29;19915;-65
2023/06/27 08:45:09;;;;;;;;;;;;;;;;;;4899635;29;19915;-66
2023/06/27 08:47:35;;;;;;;;;;;;;;;;;;4908894;29;19929;-66
2023/06/27 08:50:03;;;;;;;;;;;;;;;;;;4910623;29;19911;-65
2023/06/27 08:52:29;;;;;;;;;;;;;;;;;;4900614;29;20490;-66
2023/06/27 08:54:55;;;;;;;;;;;;;;;;;;4899203;29;19912;-66
2023/06/27 08:57:21;;;;;;;;;;;;;;;;;;4892323;29;19908;-66
2023/06/27 08:59:48;;;;;;;;;;;;;;;;;;4888877;29;19915;-66
2023/06/27 09:02:15;;;;;;;;;;;;;;;;;;4891365;29;19911;-65
2023/06/27 09:04:41;;;;;;;;;;;;;;;;;;4899009;29;19918;-64
2023/06/27 09:07:07;;;;;;;;;;;;;;;;;;4900460;29;20353;-65
2023/06/27 09:09:34;;;;;;;;;;;;;;;;;;4900266;29;19907;-64
2023/06/27 09:12:00;;;;;;;;;;;;;;;;;;4900475;29;19907;-65
2023/06/27 09:14:26;;;;;;;;;;;;;;;;;;4899206;29;19912;-64
2023/06/27 09:16:53;;;;;;;;;;;;;;;;;;4899781;29;19982;-65
2023/06/27 09:19:19;;;;;;;;;;;;;;;;;;4909405;29;20235;-64
2023/06/27 09:21:47;;;;;;;;;;;;;;;;;;4909732;29;19954;-65
2023/06/27 09:24:16;;;;;;;;;;;;;;;;;;4910161;29;19971;-64
2023/06/27 09:26:43;;;;;;;;;;;;;;;;;;4905564;29;20391;-64
2023/06/27 09:29:09;;;;;;;;;;;;;;;;;;4909644;29;19907;-64
2023/06/27 09:31:35;;;;;;;;;;;;;;;;;;4908327;29;19947;-65
2023/06/27 09:34:01;;;;;;;;;;;;;;;;;;4901722;29;19912;-66
2023/06/27 09:36:28;;;;;;;;;;;;;;;;;;4899675;29;19913;-65
2023/06/27 09:38:55;;;;;;;;;;;;;;;;;;4899867;29;20369;-65
2023/06/27 09:41:22;;;;;;;;;;;;;;;;;;4899271;29;20280;-66
2023/06/27 09:43:48;;;;;;;;;;;;;;;;;;4888582;29;19916;-66
2023/06/27 09:46:14;;;;;;;;;;;;;;;;;;4905361;29;19914;-65
2023/06/27 09:48:40;;;;;;;;;;;;;;;;;;4906821;29;19926;-65
2023/06/27 09:51:08;;;;;;;;;;;;;;;;;;4907623;29;19945;-65
2023/06/27 09:53:34;;;;;;;;;;;;;;;;;;4896023;29;19911;-65
2023/06/27 09:56:00;;;;;;;;;;;;;;;;;;4906521;29;19911;-66
2023/06/27 09:58:27;;;;;;;;;;;;;;;;;;4908678;29;19907;-65
2023/06/27 10:00:53;;;;;;;;;;;;;;;;;;4907307;29;19911;-66
2023/06/27 10:03:21;;;;;;;;;;;;;;;;;;4909068;29;19923;-65
2023/06/27 10:05:47;;;;;;;;;;;;;;;;;;4908014;29;20024;-66
2023/06/27 10:08:13;;;;;;;;;;;;;;;;;;4909516;29;19925;-65
2023/06/27 10:10:39;;;;;;;;;;;;;;;;;;4904930;29;20359;-66
2023/06/27 10:13:05;;;;;;;;;;;;;;;;;;4914200;29;20156;-66
2023/06/27 10:15:31;;;;;;;;;;;;;;;;;;4918125;29;19913;-66
2023/06/27 10:17:58;;;;;;;;;;;;;;;;;;4918284;29;19954;-66
2023/06/27 10:20:24;;;;;;;;;;;;;;;;;;4900837;29;19918;-66
2023/06/27 10:22:50;;;;;;;;;;;;;;;;;;4898864;29;19921;-66
2023/06/27 10:25:16;;;;;;;;;;;;;;;;;;4898877;29;19911;-66
2023/06/27 10:27:42;;;;;;;;;;;;;;;;;;4899353;29;19915;-66
2023/06/27 10:30:09;;;;;;;;;;;;;;;;;;4882263;29;20388;-66
2023/06/27 10:32:35;;;;;;;;;;;;;;;;;;4899306;29;19913;-66
2023/06/27 10:35:02;;;;;;;;;;;;;;;;;;4899190;29;19907;-66
2023/06/27 10:37:28;;;;;;;;;;;;;;;;;;4899458;29;19911;-65
2023/06/27 10:39:54;;;;;;;;;;;;;;;;;;4899081;29;19982;-66
2023/06/27 10:42:20;;;;;;;;;;;;;;;;;;4899351;29;19916;-66
2023/06/27 10:44:46;;;;;;;;;;;;;;;;;;4898547;29;19907;-66
2023/06/27 10:47:12;;;;;;;;;;;;;;;;;;4899142;29;20381;-66
2023/06/27 10:49:39;;;;;;;;;;;;;;;;;;4899306;29;19907;-66
2023/06/27 10:52:05;;;;;;;;;;;;;;;;;;4898928;29;19907;-66
2023/06/27 10:54:31;;;;;;;;;;;;;;;;;;4898781;29;19918;-66
2023/06/27 10:56:57;;;;;;;;;;;;;;;;;;4898825;29;19908;-65
2023/06/27 10:59:23;;;;;;;;;;;;;;;;;;4898325;29;19915;-66
2023/06/27 11:01:50;;;;;;;;;;;;;;;;;;4898702;29;19918;-66
2023/06/27 11:04:16;;;;;;;;;;;;;;;;;;4893053;29;19914;-66
2023/06/27 11:06:42;;;;;;;;;;;;;;;;;;4879201;29;20430;-66
2023/06/27 11:09:08;;;;;;;;;;;;;;;;;;4879665;29;19922;-66
2023/06/27 11:11:34;;;;;;;;;;;;;;;;;;4879935;29;19911;-65
2023/06/27 11:14:00;;;;;;;;;;;;;;;;;;4879270;29;19940;-66
2023/06/27 11:16:27;;;;;;;;;;;;;;;;;;4879587;29;19908;-66
2023/06/27 11:18:53;;;;;;;;;;;;;;;;;;4879693;29;19978;-66
2023/06/27 11:21:19;;;;;;;;;;;;;;;;;;4879738;29;19908;-66
2023/06/27 11:23:45;;;;;;;;;;;;;;;;;;4879407;29;20411;-65
2023/06/27 11:26:11;;;;;;;;;;;;;;;;;;4881357;29;19915;-66
2023/06/27 11:28:38;;;;;;;;;;;;;;;;;;4897799;29;19925;-66
2023/06/27 11:31:04;;;;;;;;;;;;;;;;;;4898331;29;19954;-66
2023/06/27 11:33:30;;;;;;;;;;;;;;;;;;4898084;29;19911;-65
2023/06/27 11:35:57;;;;;;;;;;;;;;;;;;4897566;29;19907;-66
2023/06/27 11:38:24;;;;;;;;;;;;;;;;;;4893936;29;19933;-81
2023/06/27 11:40:51;;;;;;;;;;;;;;;;;;4879590;29;19912;-79
2023/06/27 11:43:20;;;;;;;;;;;;;;;;;;4894119;29;19966;-79
2023/06/27 11:45:47;;;;;;;;;;;;;;;;;;4894715;29;19986;-76
2023/06/27 11:48:13;;;;;;;;;;;;;;;;;;4879305;29;19935;-79
2023/06/27 11:50:39;;;;;;;;;;;;;;;;;;4896085;29;19917;-79
2023/06/27 11:53:05;;;;;;;;;;;;;;;;;;4884626;29;20372;-79
2023/06/27 11:55:31;;;;;;;;;;;;;;;;;;4897480;29;19950;-79
2023/06/27 11:58:02;;;;;;;;;;;;;;;;;;4896677;29;20258;-78
2023/06/27 12:00:28;;;;;;;;;;;;;;;;;;4874512;29;19930;-78
2023/06/27 12:02:55;;;;;;;;;;;;;;;;;;4892962;29;20288;-78
2023/06/27 12:05:21;;;;;;;;;;;;;;;;;;4885139;29;20288;-78
2023/06/27 12:07:47;;;;;;;;;;;;;;;;;;4897108;29;20262;-78
2023/06/27 12:10:13;;;;;;;;;;;;;;;;;;4897252;29;19911;-73
2023/06/27 12:12:40;;;;;;;;;;;;;;;;;;4897065;29;19911;-73
2023/06/27 12:15:06;;;;;;;;;;;;;;;;;;4895632;29;19911;-82
2023/06/27 12:17:32;;;;;;;;;;;;;;;;;;4896492;29;20353;-81
2023/06/27 12:19:58;;;;;;;;;;;;;;;;;;4896851;29;20296;-81
2023/06/27 12:22:24;;;;;;;;;;;;;;;;;;4896941;29;19911;-81
2023/06/27 12:24:50;;;;;;;;;;;;;;;;;;4898419;29;20431;-81
2023/06/27 12:27:17;;;;;;;;;;;;;;;;;;4908205;29;19926;-81
2023/06/27 12:29:43;;;;;;;;;;;;;;;;;;4898414;29;19911;-81
2023/06/27 12:32:09;;;;;;;;;;;;;;;;;;4896975;29;19907;-81
2023/06/27 12:34:35;;;;;;;;;;;;;;;;;;4896825;29;19979;-81
2023/06/27 12:37:01;;;;;;;;;;;;;;;;;;4896902;29;19908;-82
2023/06/27 12:39:28;;;;;;;;;;;;;;;;;;4896405;29;19911;-82
2023/06/27 12:41:54;;;;;;;;;;;;;;;;;;4896833;29;19907;-81
2023/06/27 12:44:20;;;;;;;;;;;;;;;;;;4896848;29;19916;-82
2023/06/27 12:46:46;;;;;;;;;;;;;;;;;;4896327;29;19908;-81
2023/06/27 12:49:12;;;;;;;;;;;;;;;;;;4896646;29;19925;-81
2023/06/27 12:51:39;;;;;;;;;;;;;;;;;;4897312;29;19913;-81
2023/06/27 12:54:05;;;;;;;;;;;;;;;;;;4896540;29;19911;-81
2023/06/27 12:56:31;;;;;;;;;;;;;;;;;;4880207;29;19911;-81
2023/06/27 12:58:57;;;;;;;;;;;;;;;;;;4896934;29;20452;-81
2023/06/27 13:01:23;;;;;;;;;;;;;;;;;;4880564;29;19908;-81
2023/06/27 13:03:50;;;;;;;;;;;;;;;;;;4897223;29;19914;-82
2023/06/27 13:06:16;;;;;;;;;;;;;;;;;;4879212;29;19908;-82
2023/06/27 13:08:42;;;;;;;;;;;;;;;;;;4896505;29;19919;-81
2023/06/27 13:11:08;;;;;;;;;;;;;;;;;;4904484;29;19907;-82
2023/06/27 13:13:34;;;;;;;;;;;;;;;;;;4915542;29;19911;-81
2023/06/27 13:16:00;;;;;;;;;;;;;;;;;;4897913;29;19958;-82
2023/06/27 13:18:28;;;;;;;;;;;;;;;;;;4913075;29;19911;-81
2023/06/27 13:20:55;;;;;;;;;;;;;;;;;;4906809;29;20395;-82
2023/06/27 13:23:21;;;;;;;;;;;;;;;;;;4897882;29;19927;-82
2023/06/27 13:25:47;;;;;;;;;;;;;;;;;;4915198;29;19914;-76
2023/06/27 13:28:13;;;;;;;;;;;;;;;;;;4898026;29;19923;-82
2023/06/27 13:30:41;;;;;;;;;;;;;;;;;;4900205;29;20594;-81
2023/06/27 13:33:07;;;;;;;;;;;;;;;;;;4899993;29;19907;-81
2023/06/27 13:35:33;;;;;;;;;;;;;;;;;;4882981;29;19907;-81
2023/06/27 13:38:01;;;;;;;;;;;;;;;;;;4899842;29;19930;-82
2023/06/27 13:40:28;;;;;;;;;;;;;;;;;;4908652;29;20356;-83
2023/06/27 13:42:55;;;;;;;;;;;;;;;;;;4902918;29;19914;-81
2023/06/27 13:45:21;;;;;;;;;;;;;;;;;;4899418;29;20296;-81
2023/06/27 13:47:47;;;;;;;;;;;;;;;;;;4899676;29;19919;-81
2023/06/27 13:50:14;;;;;;;;;;;;;;;;;;4900228;29;19914;-81
2023/06/27 13:52:40;;;;;;;;;;;;;;;;;;4899785;29;19933;-81
2023/06/27 13:55:06;;;;;;;;;;;;;;;;;;4881454;29;19959;-81
2023/06/27 13:57:32;;;;;;;;;;;;;;;;;;4880708;29;20282;-81
2023/06/27 13:59:59;;;;;;;;;;;;;;;;;;4864417;29;19907;-81
2023/06/27 14:02:25;;;;;;;;;;;;;;;;;;4880805;29;20326;-81
2023/06/27 14:04:51;;;;;;;;;;;;;;;;;;4880779;29;20325;-81
2023/06/27 14:07:17;;;;;;;;;;;;;;;;;;4881184;29;20022;-82
2023/06/27 14:09:43;;;;;;;;;;;;;;;;;;4884338;29;20365;-81
2023/06/27 14:12:09;;;;;;;;;;;;;;;;;;4882009;29;20006;-82
2023/06/27 14:14:36;;;;;;;;;;;;;;;;;;4885257;29;19912;-82
2023/06/27 14:17:02;;;;;;;;;;;;;;;;;;4899257;29;19916;-81
2023/06/27 14:19:28;;;;;;;;;;;;;;;;;;4898040;29;19911;-82
2023/06/27 14:21:54;;;;;;;;;;;;;;;;;;4897790;29;19939;-81
2023/06/27 14:24:20;;;;;;;;;;;;;;;;;;4898954;29;20291;-81
2023/06/27 14:26:47;;;;;;;;;;;;;;;;;;4897702;29;19911;-81
2023/06/27 14:29:13;;;;;;;;;;;;;;;;;;4874630;29;20399;-81
2023/06/27 14:32:23;;;;;;;6.57;2.58;;;;;;;;;;5130234;27;20461;-73
2023/06/27 14:34:49;;;;;;;3.08;2.08;;;;;;;;;;5129969;28;20031;-73
2023/06/27 14:37:15;;;;;;;8.02;2.45;;;;;;;;;;5110904;28;20452;-73
2023/06/27 14:39:42;;;;;;;6.95;2.35;;;;;;;;;;5130083;28;20030;-74
2023/06/27 14:42:08;;;;;;;7.50;2.22;;;;;;;;;;5128982;28;20035;-73
2023/06/27 14:44:35;;;;;;;6.43;2.50;;;;;;;;;;5129678;28;20043;-73
2023/06/27 14:47:01;;;;;;;7.25;2.70;;;;;;;;;;5129128;28;20030;-72
2023/06/27 14:49:28;;;;;;;6.55;2.42;;;;;;;;;;5116408;28;20080;-73
2023/06/27 14:51:54;;;;;;;9.45;2.60;;;;;;;;;;5124824;28;20035;-72
2023/06/27 14:54:21;;;;;;;4.80;2.28;;;;;;;;;;5116610;28;20032;-72
2023/06/27 14:56:47;;;;;;;6.85;2.38;;;;;;;;;;5128565;28;20450;-73
2023/06/27 14:59:13;;;;;;;3.78;1.67;;;;;;;;;;5129159;28;20034;-72
2023/06/27 15:01:43;;;;;;;3.97;2.22;;;;;;;;;;5129391;28;20036;-72
2023/06/27 15:04:09;;;;;;;5.32;2.42;;;;;;;;;;5129257;28;20030;-72
2023/06/27 15:06:35;;;;;;;6.22;2.60;;;;;;;;;;5129214;28;20039;-72
2023/06/27 15:09:02;;;;;;;6.35;2.65;;;;;;;;;;5128907;28;20391;-71
2023/06/27 15:11:28;;;;;;;5.18;2.13;;;;;;;;;;5129038;28;20023;-72
2023/06/27 15:13:54;;;;;;;8.82;2.20;;;;;;;;;;5110445;28;20060;-72
2023/06/27 15:16:21;;;;;;;4.45;2.15;;;;;;;;;;5128452;28;20498;-72
2023/06/27 15:18:47;;;;;;;5.60;2.30;;;;;;;;;;5128233;28;20028;-72
2023/06/27 15:21:13;;;;;;;6.85;2.40;;;;;;;;;;5110623;28;20035;-72
2023/06/27 15:23:40;;;;;;;4.95;2.70;;;;;;;;;;5129463;28;20020;-72
2023/06/27 15:26:07;;;;;;;8.95;2.40;;;;;;;;;;5127308;28;20030;-72
2023/06/27 15:28:33;;;;;;;4.85;2.38;;;;;;;;;;5128709;28;20151;-73
2023/06/27 15:30:59;;;;;;;4.10;2.13;;;;;;;;;;5128098;27;20035;-73
2023/06/27 15:33:25;;;;;;;10.38;2.47;;;;;;;;;;5093290;28;20035;-73
2023/06/27 15:35:52;;;;;;;4.32;2.28;;;;;;;;;;5128552;28;20033;-73
2023/06/27 15:38:18;;;;;;;3.67;2.20;;;;;;;;;;5128976;28;20019;-73
2023/06/27 15:40:46;;;;;;;6.38;2.33;;;;;;;;;;5128805;28;20044;-73
2023/06/27 15:43:12;;;;;;;5.00;2.30;;;;;;;;;;5118427;28;20027;-73
2023/06/27 15:45:39;;;;;;;7.40;2.90;;;;;;;;;;5114982;28;20027;-72
2023/06/27 15:48:05;;;;;;;6.85;2.67;;;;;;;;;;5114920;28;20512;-72
2023/06/27 15:50:31;;;;;;;5.18;2.55;;;;;;;;;;5115050;28;20030;-73
2023/06/27 15:52:58;;;;;;;5.53;2.90;;;;;;;;;;5115204;28;20072;-73
2023/06/27 15:55:24;;;;;;;7.78;2.30;;;;;;;;;;5115183;28;20027;-73
2023/06/27 15:57:51;;;;;;;7.03;2.58;;;;;;;;;;5114745;28;20022;-73
2023/06/27 16:00:17;;;;;;;5.82;2.47;;;;;;;;;;5115024;28;20024;-73
2023/06/27 16:02:44;;;;;;;9.35;2.40;;;;;;;;;;5114658;28;20031;-72
2023/06/27 16:05:11;;;;;;;6.35;2.72;;;;;;;;;;5114446;28;20018;-72
2023/06/27 16:07:37;;;;;;;5.28;2.30;;;;;;;;;;5114692;28;20027;-72
2023/06/27 16:10:04;;;;;;;5.10;2.70;;;;;;;;;;5114647;28;20480;-72
2023/06/27 16:12:30;;;;;;;6.72;2.67;;;;;;;;;;5114790;28;20028;-72
2023/06/27 16:14:56;;;;;;;4.10;2.97;;;;;;;;;;5114742;28;20020;-72
2023/06/27 16:17:23;;;;;;;4.90;2.95;;;;;;;;;;5113947;28;20030;-72
2023/06/27 16:19:49;;;;;;;6.35;3.00;;;;;;;;;;5113848;28;20016;-72
2023/06/27 16:22:16;;;;;;;7.47;2.65;;;;;;;;;;5114327;28;20488;-72